Time;durP1;ratioP1;P1;durP2;ratioP2;P2;SDS_P1;SDS_P2;PMS_P1;PMS_P2;Temp;Humidity;BMP_temperature;BMP_pressure;BME280_temperature;BME280_humidity;BME280_pressure;Samples;Min_cycle;Max_cycle;Signal;HPM_P1;HPM_P2
2024/03/05 00:00:23;;;;;;;;;;;;;;;6.94;100.00;99311.97;4994274;28;1907;-65
2024/03/05 00:02:49;;;;;;;;;;;;;;;6.95;100.00;99305.28;4994177;28;821;-65
2024/03/05 00:05:15;;;;;;;;;;;;;;;6.98;100.00;99303.75;4994249;28;835;-65
2024/03/05 00:07:43;;;;;;;;;;;;;;;7.00;100.00;99304.16;4994233;28;891;-66
2024/03/05 00:10:09;;;;;;;;;;;;;;;6.99;100.00;99310.81;4994215;28;820;-65
2024/03/05 00:12:35;;;;;;;;;;;;;;;7.01;100.00;99304.94;4976681;28;899;-65
2024/03/05 00:15:04;;;;;;;;;;;;;;;7.02;100.00;99304.53;4993998;28;827;-66
2024/03/05 00:17:31;;;;;;;;;;;;;;;7.03;100.00;99300.59;4993959;28;867;-65
2024/03/05 00:19:58;;;;;;;;;;;;;;;7.00;100.00;99298.66;4993810;28;1941;-66
2024/03/05 00:22:24;;;;;;;;;;;;;;;6.99;100.00;99291.56;4976399;28;878;-66
2024/03/05 00:24:51;;;;;;;;;;;;;;;6.98;100.00;99284.53;4993893;28;973;-65
2024/03/05 00:27:17;;;;;;;;;;;;;;;6.94;100.00;99284.50;4994144;28;808;-66
2024/03/05 00:29:43;;;;;;;;;;;;;;;6.94;100.00;99273.50;4993862;28;834;-66
2024/03/05 00:32:10;;;;;;;;;;;;;;;6.94;100.00;99272.75;4993620;28;894;-66
2024/03/05 00:34:38;;;;;;;;;;;;;;;6.97;100.00;99265.66;4993441;28;852;-65
2024/03/05 00:37:04;;;;;;;;;;;;;;;6.94;100.00;99272.75;4993565;28;823;-65
2024/03/05 00:39:30;;;;;;;;;;;;;;;6.93;100.00;99269.22;4993416;28;942;-66
2024/03/05 00:41:56;;;;;;;;;;;;;;;6.90;100.00;99266.44;4993324;28;1879;-65
2024/03/05 00:44:23;;;;;;;;;;;;;;;6.92;100.00;99258.59;4993319;28;814;-66
2024/03/05 00:46:52;;;;;;;;;;;;;;;6.91;100.00;99249.59;4993553;28;873;-66
2024/03/05 00:49:19;;;;;;;;;;;;;;;6.91;100.00;99246.84;4993055;28;1299;-66
2024/03/05 00:51:47;;;;;;;;;;;;;;;6.92;100.00;99240.16;4992917;28;847;-66
2024/03/05 00:54:14;;;;;;;;;;;;;;;6.95;100.00;99252.31;4993217;28;803;-65
2024/03/05 00:56:40;;;;;;;;;;;;;;;6.91;100.00;99240.53;4993415;28;897;-65
2024/03/05 00:59:08;;;;;;;;;;;;;;;6.90;100.00;99237.00;4991761;28;922;-65
2024/03/05 01:01:34;;;;;;;;;;;;;;;6.93;100.00;99233.50;4993010;28;1910;-65
2024/03/05 01:04:01;;;;;;;;;;;;;;;6.96;100.00;99229.16;4993034;28;846;-66
2024/03/05 01:06:28;;;;;;;;;;;;;;;6.95;100.00;99228.38;4993019;28;889;-65
2024/03/05 01:08:55;;;;;;;;;;;;;;;6.95;100.00;99230.34;4991666;28;1402;-66
2024/03/05 01:11:21;;;;;;;;;;;;;;;6.91;100.00;99224.84;4975614;28;1186;-65
2024/03/05 01:13:48;;;;;;;;;;;;;;;6.93;100.00;99225.25;4992972;28;816;-65
2024/03/05 01:16:15;;;;;;;;;;;;;;;6.95;100.00;99227.59;4992826;28;803;-65
2024/03/05 01:18:42;;;;;;;;;;;;;;;6.95;100.00;99220.13;4992795;28;807;-65
2024/03/05 01:21:08;;;;;;;;;;;;;;;6.98;100.00;99224.06;4992910;28;1890;-65
2024/03/05 01:23:35;;;;;;;;;;;;;;;6.96;100.00;99220.94;4992841;28;861;-66
2024/03/05 01:26:02;;;;;;;;;;;;;;;6.99;100.00;99222.09;4991530;28;1173;-66
2024/03/05 01:28:29;;;;;;;;;;;;;;;6.98;100.00;99220.50;4992667;28;866;-66
2024/03/05 01:30:56;;;;;;;;;;;;;;;6.95;100.00;99225.63;4992642;28;870;-65
2024/03/05 01:33:23;;;;;;;;;;;;;;;7.01;100.00;99217.78;4992635;28;890;-65
2024/03/05 01:35:51;;;;;;;;;;;;;;;7.01;100.00;99219.75;4991224;28;1209;-65
2024/03/05 01:38:18;;;;;;;;;;;;;;;7.02;100.00;99205.63;4992635;28;828;-65
2024/03/05 01:40:45;;;;;;;;;;;;;;;7.03;100.00;99211.91;4992655;28;1974;-66
2024/03/05 01:43:11;;;;;;;;;;;;;;;7.06;100.00;99205.59;4992496;28;819;-65
2024/03/05 01:45:38;;;;;;;;;;;;;;;7.07;100.00;99212.69;4992484;28;875;-65
2024/03/05 01:48:05;;;;;;;;;;;;;;;7.09;100.00;99216.59;4992530;28;795;-66
2024/03/05 01:50:35;;;;;;;;;;;;;;;7.10;100.00;99212.66;4992207;28;1342;-67
2024/03/05 01:53:03;;;;;;;;;;;;;;;7.13;100.00;99222.13;4992555;28;1282;-66
2024/03/05 01:55:29;;;;;;;;;;;;;;;7.16;100.00;99215.81;4992942;28;811;-66
2024/03/05 01:57:57;;;;;;;;;;;;;;;7.16;100.00;99219.34;4992486;28;817;-66
2024/03/05 02:00:23;;;;;;;;;;;;;;;7.15;100.00;99217.78;4992324;28;1960;-65
2024/03/05 02:02:50;;;;;;;;;;;;;;;7.19;100.00;99216.97;4993393;28;839;-66
2024/03/05 02:05:17;;;;;;;;;;;;;;;7.19;100.00;99219.72;4996317;28;808;-66
2024/03/05 02:07:45;;;;;;;;;;;;;;;7.14;100.00;99209.94;4996306;28;824;-66
2024/03/05 02:10:11;;;;;;;;;;;;;;;7.20;100.00;99213.84;4995307;28;1209;-66
2024/03/05 02:12:40;;;;;;;;;;;;;;;7.18;100.00;99210.72;4996255;28;803;-65
2024/03/05 02:15:11;;;;;;;;;;;;;;;7.18;100.00;99213.47;4996277;28;863;-66
2024/03/05 02:17:40;;;;;;;;;;;;;;;7.15;100.00;99206.78;4996084;28;863;-66
2024/03/05 02:20:10;;;;;;;;;;;;;;;7.13;100.00;99211.13;4995914;28;1945;-66
2024/03/05 02:22:37;;;;;;;;;;;;;;;7.14;100.00;99205.22;4996077;28;808;-65
2024/03/05 02:25:05;;;;;;;;;;;;;;;7.15;100.00;99203.25;4996017;28;815;-66
2024/03/05 02:27:32;;;;;;;;;;;;;;;7.10;100.00;99207.16;4995766;28;894;-67
2024/03/05 02:29:58;;;;;;;;;;;;;;;7.09;100.00;99202.09;4995780;28;820;-66
2024/03/05 02:32:25;;;;;;;;;;;;;;;7.01;100.00;99195.81;4995795;28;807;-66
2024/03/05 02:34:54;;;;;;;;;;;;;;;6.94;100.00;99193.84;4995736;28;874;-66
2024/03/05 02:37:21;;;;;;;;;;;;;;;6.89;100.00;99187.94;4995734;28;803;-66
2024/03/05 02:39:48;;;;;;;;;;;;;;;6.82;100.00;99185.19;4995792;28;1886;-66
2024/03/05 02:42:14;;;;;;;;;;;;;;;6.73;100.00;99180.09;4995977;28;826;-66
2024/03/05 02:44:41;;;;;;;;;;;;;;;6.65;100.00;99182.03;4995543;28;792;-65
2024/03/05 02:47:07;;;;;;;;;;;;;;;6.57;100.00;99185.19;4995923;28;930;-66
2024/03/05 02:49:36;;;;;;;;;;;;;;;6.48;100.00;99193.78;4995320;28;1460;-66
2024/03/05 02:52:03;;;;;;;;;;;;;;;6.42;100.00;99184.38;4995457;28;862;-67
2024/03/05 02:54:29;;;;;;;;;;;;;;;6.34;100.00;99189.84;4995396;28;875;-67
2024/03/05 02:56:55;;;;;;;;;;;;;;;6.33;100.00;99190.22;4995349;28;874;-66
2024/03/05 02:59:22;;;;;;;;;;;;;;;6.36;100.00;99181.25;4995486;28;827;-66
2024/03/05 03:01:48;;;;;;;;;;;;;;;6.39;100.00;99185.16;4995428;28;1982;-65
2024/03/05 03:04:15;;;;;;;;;;;;;;;6.44;100.00;99185.53;4995233;28;817;-65
2024/03/05 03:06:42;;;;;;;;;;;;;;;6.47;100.00;99190.28;4995225;28;799;-66
2024/03/05 03:09:09;;;;;;;;;;;;;;;6.50;100.00;99189.47;4993306;28;1437;-66
2024/03/05 03:11:37;;;;;;;;;;;;;;;6.50;100.00;99185.97;4977560;28;1264;-67
2024/03/05 03:14:05;;;;;;;;;;;;;;;6.50;100.00;99194.97;4994677;28;863;-66
2024/03/05 03:16:32;;;;;;;;;;;;;;;6.51;100.00;99185.56;4994788;28;809;-66
2024/03/05 03:18:59;;;;;;;;;;;;;;;6.52;100.00;99189.88;4994867;28;831;-66
2024/03/05 03:21:26;;;;;;;;;;;;;;;6.49;100.00;99184.41;4994965;28;1882;-66
2024/03/05 03:23:52;;;;;;;;;;;;;;;6.58;100.00;99173.81;4994770;28;866;-65
2024/03/05 03:26:19;;;;;;;;;;;;;;;6.67;100.00;99181.66;4994906;28;825;-65
2024/03/05 03:28:45;;;;;;;;;;;;;;;6.69;100.00;99182.84;4994833;28;839;-65
2024/03/05 03:31:12;;;;;;;;;;;;;;;6.74;100.00;99176.97;4994803;28;828;-65
2024/03/05 03:33:39;;;;;;;;;;;;;;;6.83;100.00;99171.09;4995083;28;910;-66
2024/03/05 03:36:06;;;;;;;;;;;;;;;6.86;100.00;99167.53;4994707;28;866;-67
2024/03/05 03:38:36;;;;;;;;;;;;;;;6.90;100.00;99171.06;4994778;28;823;-66
2024/03/05 03:41:05;;;;;;;;;;;;;;;6.86;100.00;99170.28;4994655;28;1910;-66
2024/03/05 03:43:31;;;;;;;;;;;;;;;6.84;100.00;99169.13;4976961;28;1276;-66
2024/03/05 03:45:58;;;;;;;;;;;;;;;6.89;100.00;99171.47;4994634;28;905;-65
2024/03/05 03:48:25;;;;;;;;;;;;;;;6.84;100.00;99175.38;4993129;28;1391;-65
2024/03/05 03:50:51;;;;;;;;;;;;;;;6.80;100.00;99166.34;4994250;28;1348;-66
2024/03/05 03:53:18;;;;;;;;;;;;;;;6.80;100.00;99165.59;4994312;28;855;-66
2024/03/05 03:55:44;;;;;;;;;;;;;;;6.83;100.00;99159.28;4994321;28;876;-67
2024/03/05 03:58:11;;;;;;;;;;;;;;;6.88;100.00;99158.91;4994354;28;804;-66
2024/03/05 04:00:37;;;;;;;;;;;;;;;6.89;100.00;99154.97;4994521;28;1910;-66
2024/03/05 04:03:05;;;;;;;;;;;;;;;6.91;100.00;99155.38;4976667;28;1214;-66
2024/03/05 04:05:32;;;;;;;;;;;;;;;6.94;100.00;99157.34;4994131;28;914;-66
2024/03/05 04:07:59;;;;;;;;;;;;;;;6.97;100.00;99161.25;4994333;28;823;-65
2024/03/05 04:10:26;;;;;;;;;;;;;;;7.01;100.00;99165.56;4994186;28;859;-66
2024/03/05 04:12:53;;;;;;;;;;;;;;;7.04;100.00;99166.75;4994147;28;851;-66
2024/03/05 04:15:19;;;;;;;;;;;;;;;7.03;100.00;99163.22;4993864;28;827;-66
2024/03/05 04:17:46;;;;;;;;;;;;;;;7.00;100.00;99160.47;4992583;28;1300;-66
2024/03/05 04:20:14;;;;;;;;;;;;;;;6.96;100.00;99165.97;4994097;28;1949;-67
2024/03/05 04:22:40;;;;;;;;;;;;;;;6.94;100.00;99158.13;4993830;28;890;-66
2024/03/05 04:25:07;;;;;;;;;;;;;;;6.91;100.00;99158.13;4993744;28;854;-67
2024/03/05 04:27:41;;;;;;;;;;;;;;;6.86;100.00;99170.28;4992872;28;866;-66
2024/03/05 04:30:12;;;;;;;;;;;;;;;6.88;100.00;99164.41;4992360;28;1186;-66
2024/03/05 04:32:45;;;;;;;;;;;;;;;6.91;100.00;99164.41;4994205;28;787;-66
2024/03/05 04:35:16;;;;;;;;;;;;;;;6.92;100.00;99174.22;4993611;28;930;-65
2024/03/05 04:37:42;;;;;;;;;;;;;;;6.94;100.00;99171.88;4993510;28;874;-65
2024/03/05 04:40:10;;;;;;;;;;;;;;;6.94;100.00;99177.34;4993439;28;1890;-66
2024/03/05 04:42:36;;;;;;;;;;;;;;;6.98;100.00;99173.81;4993395;28;889;-66
2024/03/05 04:45:03;;;;;;;;;;;;;;;7.01;100.00;99175.78;4993396;28;833;-66
2024/03/05 04:47:30;;;;;;;;;;;;;;;7.05;100.00;99173.81;4993148;28;1006;-65
2024/03/05 04:49:57;;;;;;;;;;;;;;;7.05;100.00;99171.84;4993119;28;1441;-66
2024/03/05 04:52:23;;;;;;;;;;;;;;;7.09;100.00;99174.59;4993200;28;811;-66
2024/03/05 04:54:50;;;;;;;;;;;;;;;7.09;100.00;99177.34;4993193;28;795;-66
2024/03/05 04:57:16;;;;;;;;;;;;;;;7.10;100.00;99162.41;4993244;28;839;-66
2024/03/05 04:59:43;;;;;;;;;;;;;;;7.11;100.00;99175.00;4993098;28;866;-66
2024/03/05 05:02:09;;;;;;;;;;;;;;;7.16;100.00;99166.34;4992966;28;1973;-65
2024/03/05 05:04:37;;;;;;;;;;;;;;;7.18;100.00;99177.72;4993165;28;849;-65
2024/03/05 05:07:07;;;;;;;;;;;;;;;7.19;100.00;99173.81;4992996;28;867;-66
2024/03/05 05:09:37;;;;;;;;;;;;;;;7.28;100.00;99178.91;4992863;28;831;-65
2024/03/05 05:12:03;;;;;;;;;;;;;;;7.34;100.00;99180.84;4975406;28;1182;-65
2024/03/05 05:14:31;;;;;;;;;;;;;;;7.30;100.00;99173.78;4992780;28;814;-65
2024/03/05 05:16:59;;;;;;;;;;;;;;;7.25;100.00;99177.72;4992731;28;925;-65
2024/03/05 05:19:25;;;;;;;;;;;;;;;7.38;100.00;99167.09;4992719;28;839;-65
2024/03/05 05:21:52;;;;;;;;;;;;;;;7.44;100.00;99179.25;4992631;28;1890;-65
2024/03/05 05:24:19;;;;;;;;;;;;;;;7.47;100.00;99178.47;4992585;28;907;-65
2024/03/05 05:26:46;;;;;;;;;;;;;;;7.53;100.00;99176.88;4992712;28;890;-65
2024/03/05 05:29:13;;;;;;;;;;;;;;;7.54;100.00;99166.66;4991310;28;906;-65
2024/03/05 05:31:39;;;;;;;;;;;;;;;7.63;100.00;99171.75;4992511;28;831;-65
2024/03/05 05:34:06;;;;;;;;;;;;;;;7.57;100.00;99174.91;4992514;28;870;-65
2024/03/05 05:36:33;;;;;;;;;;;;;;;7.63;100.00;99175.28;4992448;28;854;-65
2024/03/05 05:38:59;;;;;;;;;;;;;;;7.68;100.00;99169.38;4992323;28;891;-65
2024/03/05 05:41:26;;;;;;;;;;;;;;;7.67;100.00;99178.03;4991038;28;1882;-65
2024/03/05 05:43:52;;;;;;;;;;;;;;;7.74;100.00;99178.00;4992490;28;888;-65
2024/03/05 05:46:22;;;;;;;;;;;;;;;7.87;100.00;99179.13;4992771;28;918;-65
2024/03/05 05:48:49;;;;;;;;;;;;;;;7.91;100.00;99185.38;4992303;28;1236;-65
2024/03/05 05:51:18;;;;;;;;;;;;;;;7.85;100.00;99180.69;4975089;28;1324;-65
2024/03/05 05:53:45;;;;;;;;;;;;;;;7.85;100.00;99176.00;4992388;28;867;-65
2024/03/05 05:56:13;;;;;;;;;;;;;;;7.92;100.00;99175.97;4992391;28;828;-65
2024/03/05 05:58:39;;;;;;;;;;;;;;;7.98;100.00;99179.88;4974780;28;1308;-65
2024/03/05 06:01:09;;;;;;;;;;;;;;;8.09;100.00;99177.06;4992316;28;1911;-65
2024/03/05 06:03:40;;;;;;;;;;;;;;;8.10;100.00;99173.13;4992350;28;908;-64
2024/03/05 06:06:07;;;;;;;;;;;;;;;8.21;100.00;99172.28;4992461;28;811;-64
2024/03/05 06:08:35;;;;;;;;;;;;;;;8.22;100.00;99180.16;4992281;28;878;-64
2024/03/05 06:11:01;;;;;;;;;;;;;;;8.36;100.00;99182.03;4992268;28;907;-64
2024/03/05 06:13:29;;;;;;;;;;;;;;;8.47;100.00;99179.22;4992261;28;803;-64
2024/03/05 06:15:55;;;;;;;;;;;;;;;8.59;100.00;99184.28;4992186;28;903;-64
2024/03/05 06:18:22;;;;;;;;;;;;;;;8.66;100.00;99175.94;4992211;28;914;-63
2024/03/05 06:20:52;;;;;;;;;;;;;;;8.76;100.00;99169.56;4992082;28;1886;-63
2024/03/05 06:23:19;;;;;;;;;;;;;;;9.04;100.00;99173.28;4992353;28;878;-62
2024/03/05 06:25:46;;;;;;;;;;;;;;;9.21;100.00;99177.06;4991889;28;835;-62
2024/03/05 06:28:13;;;;;;;;;;;;;;;9.06;100.00;99176.41;4992084;28;819;-62
2024/03/05 06:30:45;;;;;;;;;;;;;;;8.88;100.00;99168.31;4991916;28;878;-62
2024/03/05 06:33:12;;;;;;;;;;;;;;;8.92;100.00;99168.31;4992123;28;811;-61
2024/03/05 06:35:39;;;;;;;;;;;;;;;8.93;100.00;99169.84;4992063;28;790;-62
2024/03/05 06:38:08;;;;;;;;;;;;;;;8.97;100.00;99174.13;4991868;28;823;-62
2024/03/05 06:40:37;;;;;;;;;;;;;;;9.11;100.00;99169.69;4992067;28;2241;-61
2024/03/05 06:43:12;;;;;;;;;;;;;;;9.32;100.00;99179.72;4991843;28;845;-61
2024/03/05 06:45:42;;;;;;;;;;;;;;;9.45;100.00;99180.00;4992061;28;1119;-61
2024/03/05 06:48:09;;;;;;;;;;;;;;;9.49;100.00;99186.25;4991948;28;844;-61
2024/03/05 06:50:41;;;;;;;;;;;;;;;9.56;100.00;99184.22;4993588;28;1437;-61
2024/03/05 06:58:44;;;;;;;;;;;;;;;9.87;100.00;99187.03;4995509;28;606;-62
2024/03/05 07:01:11;;;;;;;;;;;;;;;9.91;100.00;99193.28;4995151;28;1967;-62
2024/03/05 07:03:39;;;;;;;;;;;;;;;9.82;100.00;99188.25;4995021;28;868;-61
2024/03/05 07:06:15;;;;;;;;;;;;;;;9.89;100.00;99203.94;4995113;28;787;-62
2024/03/05 07:08:42;;;;;;;;;;;;;;;9.85;100.00;99203.22;4995024;28;862;-61
2024/03/05 07:11:15;;;;;;;;;;;;;;;9.87;100.00;99198.06;4995011;28;866;-61
2024/03/05 07:13:43;;;;;;;;;;;;;;;9.74;100.00;99195.06;4995237;28;828;-61
2024/03/05 07:16:15;;;;;;;;;;;;;;;9.64;100.00;99198.72;4994856;28;914;-61
2024/03/05 07:18:49;;;;;;;;;;;;;;;9.68;100.00;99202.22;4994900;28;870;-61
2024/03/05 07:21:17;;;;;;;;;;;;;;;9.70;100.00;99210.88;4994688;28;1960;-61
2024/03/05 07:23:46;;;;;;;;;;;;;;;9.81;100.00;99202.47;4994806;28;934;-61
2024/03/05 07:26:15;;;;;;;;;;;;;;;9.95;100.00;99207.81;4994648;28;866;-61
2024/03/05 07:28:41;;;;;;;;;;;;;;;9.96;100.00;99203.06;4995139;28;831;-61
2024/03/05 07:31:08;;;;;;;;;;;;;;;9.73;100.00;99203.72;4994585;28;1159;-61
2024/03/05 07:33:35;;;;;;;;;;;;;;;9.67;100.00;99197.13;4994625;28;803;-61
2024/03/05 07:36:02;;;;;;;;;;;;;;;9.67;100.00;99197.13;4994514;28;1153;-61
2024/03/05 07:38:28;;;;;;;;;;;;;;;9.75;100.00;99193.06;4994478;28;1305;-61
2024/03/05 07:40:55;;;;;;;;;;;;;;;9.94;100.00;99197.19;4994396;28;1941;-61
2024/03/05 07:43:22;;;;;;;;;;;;;;;10.11;100.00;99193.41;4994369;28;866;-61
2024/03/05 07:45:48;;;;;;;;;;;;;;;10.25;100.00;99197.22;4994452;28;1017;-61
2024/03/05 07:48:15;;;;;;;;;;;;;;;10.56;100.00;99200.75;4994346;28;859;-61
2024/03/05 07:50:42;;;;;;;;;;;;;;;10.73;100.00;99201.69;4994049;28;1350;-61
2024/03/05 07:53:08;;;;;;;;;;;;;;;10.95;100.00;99199.38;4994430;28;807;-61
2024/03/05 07:55:37;;;;;;;;;;;;;;;10.93;100.00;99201.78;4994540;28;834;-61
2024/03/05 07:58:04;;;;;;;;;;;;;;;10.87;100.00;99195.16;4994076;28;842;-61
2024/03/05 08:00:30;;;;;;;;;;;;;;;11.01;100.00;99197.72;4993824;28;1961;-61
2024/03/05 08:02:57;;;;;;;;;;;;;;;11.15;100.00;99191.13;4993918;28;801;-61
2024/03/05 08:05:24;;;;;;;;;;;;;;;11.47;100.00;99196.09;4993983;28;792;-61
2024/03/05 08:07:51;;;;;;;;;;;;;;;11.73;100.00;99201.97;4993950;28;815;-62
2024/03/05 08:10:19;;;;;;;;;;;;;;;11.87;100.00;99198.16;4993857;28;855;-62
2024/03/05 08:12:46;;;;;;;;;;;;;;;11.85;100.00;99195.78;4992628;28;1207;-62
2024/03/05 08:15:15;;;;;;;;;;;;;;;11.59;100.00;99201.03;4976262;28;851;-62
2024/03/05 08:17:45;;;;;;;;;;;;;;;11.80;100.00;99196.28;4993990;28;874;-63
2024/03/05 08:20:13;;;;;;;;;;;;;;;11.72;100.00;99195.66;4993602;28;1886;-62
2024/03/05 08:22:40;;;;;;;;;;;;;;;11.50;100.00;99188.94;4993715;28;881;-63
2024/03/05 08:25:09;;;;;;;;;;;;;;;11.85;100.00;99193.03;4993576;28;846;-63
2024/03/05 08:27:38;;;;;;;;;;;;;;;11.94;100.00;99192.47;4993534;28;796;-63
2024/03/05 08:30:07;;;;;;;;;;;;;;;11.95;100.00;99192.06;4993529;28;851;-63
2024/03/05 08:32:36;;;;;;;;;;;;;;;11.79;100.00;99189.97;4993523;28;823;-63
2024/03/05 08:35:05;;;;;;;;;;;;;;;11.62;100.00;99191.88;4993399;28;933;-62
2024/03/05 08:37:32;;;;;;;;;;;;;;;11.50;100.00;99191.69;4993634;28;843;-62
2024/03/05 08:39:58;;;;;;;;;;;;;;;11.51;100.00;99191.28;4993391;28;796;-62
2024/03/05 08:42:25;;;;;;;;;;;;;;;11.89;100.00;99199.31;4993306;28;1951;-63
2024/03/05 08:44:55;;;;;;;;;;;;;;;12.19;100.00;99200.28;4993254;28;859;-62
2024/03/05 08:47:21;;;;;;;;;;;;;;;12.32;100.00;99187.31;4993586;28;887;-62
2024/03/05 08:49:50;;;;;;;;;;;;;;;12.38;100.00;99191.16;4975594;28;1341;-63
2024/03/05 08:52:18;;;;;;;;;;;;;;;12.60;100.00;99187.91;4992990;28;858;-63
2024/03/05 08:54:44;;;;;;;;;;;;;;;12.41;100.00;99175.66;4993188;28;831;-62
2024/03/05 08:57:11;;;;;;;;;;;;;;;12.40;100.00;99174.09;4992877;28;914;-62
2024/03/05 08:59:37;;;;;;;;;;;;;;;12.22;100.00;99177.25;4992967;28;827;-62
2024/03/05 09:02:04;;;;;;;;;;;;;;;12.10;100.00;99181.47;4992829;28;1914;-62
2024/03/05 09:04:31;;;;;;;;;;;;;;;12.05;100.00;99184.72;4992883;28;890;-62
2024/03/05 09:06:57;;;;;;;;;;;;;;;12.13;100.00;99179.81;4992859;28;840;-63
2024/03/05 09:09:28;;;;;;;;;;;;;;;12.44;100.00;99172.81;4991500;28;1209;-62
2024/03/05 09:11:56;;;;;;;;;;;;;;;13.28;100.00;99164.06;4992671;28;875;-63
2024/03/05 09:14:22;;;;;;;;;;;;;;;14.46;95.50;99169.03;4993166;28;828;-63
2024/03/05 09:47:51;;;;;;;;;;;;;;;13.64;86.26;99152.78;5054710;23;1629;-48
2024/03/05 09:50:18;;;;;;;;;;;;;;;13.40;89.30;99143.94;4972978;28;947;-49
2024/03/05 09:52:46;;;;;;;;;;;;;;;13.66;89.56;99142.03;4972922;28;935;-48
2024/03/05 09:55:12;;;;;;;;;;;;;;;13.86;81.59;99146.63;4972826;28;993;-49
2024/03/05 09:57:40;;;;;;;;;;;;;;;14.21;82.21;99133.69;4972893;28;943;-49
2024/03/05 10:00:10;;;;;;;;;;;;;;;14.58;80.69;99133.38;4955557;28;1914;-49
2024/03/05 10:02:38;;;;;;;;;;;;;;;14.75;81.79;99134.81;4972823;28;941;-50
2024/03/05 10:05:08;;;;;;;;;;;;;;;14.63;77.69;99125.25;4972921;28;844;-49
2024/03/05 10:07:35;;;;;;;;;;;;;;;14.60;77.85;99123.38;4972695;28;918;-48
2024/03/05 10:10:29;;;;;;;;;;;;;;;14.13;77.24;99128.78;4972880;28;804;-50
2024/03/05 10:13:00;;;;;;;;;;;;;;;14.07;79.04;99126.56;4970139;28;1135;-49
2024/03/05 10:15:27;;;;;;;;;;;;;;;14.54;76.36;99116.00;4972864;28;901;-50
2024/03/05 10:17:54;;;;;;;;;;;;;;;14.53;77.77;99106.09;4972723;28;870;-50
2024/03/05 10:20:34;;;;;;;;;;;;;;;14.48;77.15;99113.00;4972736;28;1949;-49
2024/03/05 10:23:01;;;;;;;;;;;;;;;14.58;73.69;99100.78;4972674;28;1408;-49
2024/03/05 10:25:28;;;;;;;;;;;;;;;14.83;74.59;99097.19;4974799;28;855;-50
2024/03/05 10:27:55;;;;;;;;;;;;;;;14.82;72.99;99094.84;4976679;28;1266;-49
2024/03/05 10:30:25;;;;;;;;;;;;;;;14.88;72.14;99093.06;4976744;28;767;-51
2024/03/05 10:32:56;;;;;;;;;;;;;;;15.11;71.25;99087.09;4976442;28;803;-51
2024/03/05 10:35:23;;;;;;;;;;;;;;;15.15;70.97;99083.38;4976242;28;842;-53
2024/03/05 10:38:08;;;;;;;;;;;;;;;15.38;69.99;99082.19;4976322;28;819;-52
2024/03/05 10:40:35;;;;;;;;;;;;;;;15.91;69.54;99082.25;4976007;28;1874;-48
2024/03/05 10:43:02;;;;;;;;;;;;;;;15.45;69.13;99079.94;4976183;28;1071;-49
2024/03/05 10:45:28;;;;;;;;;;;;;;;15.36;69.40;99090.97;4976411;28;997;-49
2024/03/05 10:47:58;;;;;;;;;;;;;;;15.44;67.04;99089.50;4975983;28;1340;-50
2024/03/05 10:50:28;;;;;;;;;;;;;;;15.68;70.06;99086.25;4976031;28;827;-50
2024/03/05 10:52:56;;;;;;;;;;;;;;;16.05;66.87;99092.84;4976046;28;866;-49
2024/03/05 10:55:23;;;;;;;;;;;;;;;16.01;64.11;99086.63;4975839;28;943;-50
2024/03/05 11:00:39;;;;;;;;;;;;;;;16.16;64.95;99091.66;4976127;28;1906;-50
2024/03/05 11:03:07;;;;;;;;;;;;;;;16.15;62.50;99090.88;4975756;28;879;-48
2024/03/05 11:05:56;;;;;;;;;;;;;;;15.80;62.76;99095.81;4975712;28;868;-49
2024/03/05 11:08:26;;;;;;;;;;;;;;;15.61;60.40;99078.16;4975633;28;911;-49
2024/03/05 11:10:58;;;;;;;;;;;;;;;15.38;61.07;99085.75;4975673;28;925;-50
2024/03/05 11:13:26;;;;;;;;;;;;;;;15.17;61.34;99081.72;4975787;28;1263;-49
2024/03/05 11:15:53;;;;;;;;;;;;;;;15.58;61.60;99065.16;4975744;28;870;-49
2024/03/05 11:18:33;;;;;;;;;;;;;;;15.33;58.02;99072.41;4975791;28;935;-49
2024/03/05 11:21:05;;;;;;;;;;;;;;;15.29;61.44;99072.53;4975343;28;1887;-49
2024/03/05 11:23:32;;;;;;;;;;;;;;;15.37;59.77;99072.28;4975429;28;1157;-49
2024/03/05 11:26:07;;;;;;;;;;;;;;;15.37;61.07;99069.50;4975526;28;882;-49
2024/03/05 11:28:35;;;;;;;;;;;;;;;15.57;55.46;99066.38;4975336;28;965;-48
2024/03/05 11:31:17;;;;;;;;;;;;;;;16.02;56.22;99068.66;4975221;28;930;-49
2024/03/05 11:33:44;;;;;;;;;;;;;;;16.05;52.37;99064.22;4975330;28;978;-49
2024/03/05 11:36:18;;;;;;;;;;;;;;;15.94;55.95;99072.97;4974951;28;976;-51
2024/03/05 11:39:02;;;;;;;;;;;;;;;16.07;51.55;99056.94;4975067;28;938;-49
2024/03/05 11:41:30;;;;;;;;;;;;;;;16.07;51.14;99070.09;4975169;28;1941;-50
2024/03/05 11:43:57;;;;;;;;;;;;;;;15.95;50.83;99062.59;4975025;28;937;-51
2024/03/05 11:46:42;;;;;;;;;;;;;;;16.21;50.16;99065.97;4975091;28;1214;-49
2024/03/05 11:49:09;;;;;;;;;;;;;;;16.20;48.45;99058.84;4957836;28;1441;-50
2024/03/05 11:51:37;;;;;;;;;;;;;;;15.67;50.31;99071.56;4975530;28;811;-50
2024/03/05 11:54:04;;;;;;;;;;;;;;;15.48;51.38;99067.09;4975000;28;858;-50
2024/03/05 11:56:30;;;;;;;;;;;;;;;15.52;53.01;99060.16;4974991;28;780;-51
2024/03/05 11:58:55;;;;;;;;;;;;;;;15.89;53.40;99059.63;4974959;28;974;-49
2024/03/05 12:01:23;;;;;;;;;;;;;;;15.85;51.68;99058.97;4957525;28;1911;-49
2024/03/05 12:04:11;;;;;;;;;;;;;;;15.85;52.57;99061.78;4974838;28;1332;-49
2024/03/05 12:06:43;;;;;;;;;;;;;;;15.45;53.26;99063.22;4975441;28;783;-48
2024/03/05 12:09:20;;;;;;;;;;;;;;;15.13;54.59;99063.56;4974552;28;946;-48
2024/03/05 12:12:10;;;;;;;;;;;;;;;15.26;54.94;99056.75;4974452;28;1140;-49
2024/03/05 12:14:39;;;;;;;;;;;;;;;15.03;53.91;99057.19;4974426;28;894;-49
2024/03/05 12:17:12;;;;;;;;;;;;;;;14.82;56.66;99051.13;4974364;28;908;-49
2024/03/05 12:19:40;;;;;;;;;;;;;;;15.00;55.86;99060.84;4958002;28;912;-48
2024/03/05 12:22:09;;;;;;;;;;;;;;;15.42;54.26;99055.75;4974297;28;1886;-48
2024/03/05 12:24:36;;;;;;;;;;;;;;;16.00;52.46;99060.00;4974334;28;837;-48
2024/03/05 12:27:04;;;;;;;;;;;;;;;16.03;51.87;99061.09;4974363;28;850;-49
2024/03/05 12:29:36;;;;;;;;;;;;;;;16.07;51.25;99056.16;4974134;28;965;-49
2024/03/05 12:32:08;;;;;;;;;;;;;;;16.39;49.58;99062.47;4957157;28;966;-51
2024/03/05 12:34:35;;;;;;;;;;;;;;;17.00;49.51;99049.56;4974105;28;850;-50
2024/03/05 12:37:02;;;;;;;;;;;;;;;17.73;46.78;99048.72;4973971;28;962;-49
2024/03/05 12:39:28;;;;;;;;;;;;;;;17.52;44.96;99053.25;4974115;28;854;-49
2024/03/05 12:41:59;;;;;;;;;;;;;;;17.30;47.08;99041.47;4973900;28;1890;-51
2024/03/05 12:44:25;;;;;;;;;;;;;;;16.85;49.37;99038.22;4974136;28;819;-49
2024/03/05 12:47:02;;;;;;;;;;;;;;;16.61;51.12;99051.22;4973769;28;1224;-49
2024/03/05 12:49:31;;;;;;;;;;;;;;;17.22;49.06;99049.44;4973693;28;1148;-50
2024/03/05 12:52:05;;;;;;;;;;;;;;;16.84;47.39;99052.66;4973667;28;931;-47
2024/03/05 12:54:32;;;;;;;;;;;;;;;16.23;49.68;99058.69;4973882;28;831;-48
2024/03/05 12:56:58;;;;;;;;;;;;;;;15.81;50.11;99059.13;4973602;28;911;-47
2024/03/05 12:59:25;;;;;;;;;;;;;;;15.96;49.95;99062.16;4973817;28;878;-47
2024/03/05 13:01:56;;;;;;;;;;;;;;;15.70;51.09;99070.66;4972390;28;1942;-50
2024/03/05 13:04:22;;;;;;;;;;;;;;;15.59;52.67;99061.91;4974096;28;807;-46
2024/03/05 13:06:49;;;;;;;;;;;;;;;15.92;50.56;99067.09;4973955;28;1295;-47
2024/03/05 13:09:20;;;;;;;;;;;;;;;15.91;49.52;99065.53;4973558;28;898;-47
2024/03/05 13:11:47;;;;;;;;;;;;;;;15.74;51.22;99073.31;4973537;28;851;-46
2024/03/05 13:14:14;;;;;;;;;;;;;;;15.10;53.40;99076.41;4973496;28;902;-47
2024/03/05 13:16:43;;;;;;;;;;;;;;;14.80;54.58;99080.63;4973709;28;823;-47
2024/03/05 13:19:13;;;;;;;;;;;;;;;14.37;54.46;99079.97;4940038;28;861;-46
2024/03/05 13:21:41;;;;;;;;;;;;;;;14.46;55.42;99079.31;4973242;28;1886;-46
2024/03/05 13:24:10;;;;;;;;;;;;;;;14.55;53.53;99092.53;4973219;28;906;-47
2024/03/05 13:26:46;;;;;;;;;;;;;;;14.33;56.12;99086.88;4973162;28;875;-46
2024/03/05 13:29:12;;;;;;;;;;;;;;;14.46;57.21;99087.66;4973197;28;1248;-48
2024/03/05 13:31:39;;;;;;;;;;;;;;;14.66;55.40;99095.78;4973150;28;942;-48
2024/03/05 13:34:08;;;;;;;;;;;;;;;14.72;54.76;99099.53;4973188;28;1002;-48
2024/03/05 13:36:35;;;;;;;;;;;;;;;15.24;54.94;99095.38;4973270;28;1288;-49
2024/03/05 13:39:11;;;;;;;;;;;;;;;15.50;66.47;99100.84;4973339;28;1272;-48
2024/03/05 13:41:38;;;;;;;;;;;;;;;14.79;73.53;99096.53;4972914;28;1890;-48
2024/03/05 13:44:06;;;;;;;;;;;;;;;14.26;82.28;99093.44;4955835;28;744;-48
2024/03/05 13:46:33;;;;;;;;;;;;;;;14.15;85.50;99095.78;4972860;28;1200;-49